createdAt,value
2017-10-24T00:00:29.592Z,3.88
2017-10-24T00:01:39.939Z,3.92
2017-10-24T00:02:49.945Z,4
2017-10-24T00:04:00.298Z,3.94
2017-10-24T00:05:10.636Z,3.92
2017-10-24T00:06:20.976Z,4.02
2017-10-24T00:07:31.316Z,3.99
2017-10-24T00:08:41.655Z,3.96
2017-10-24T00:09:51.661Z,4.02
2017-10-24T00:11:01.673Z,4.03
2017-10-24T00:12:11.341Z,4.06
2017-10-24T00:13:21.684Z,4.07
2017-10-24T00:14:32.022Z,4.1
2017-10-24T00:15:42.382Z,4.13
2017-10-24T00:16:52.050Z,4.14
2017-10-24T00:18:02.387Z,4.16
2017-10-24T00:19:12.390Z,4.13
2017-10-24T00:20:22.730Z,4.1
2017-10-24T00:21:33.068Z,4.1
2017-10-24T00:22:43.070Z,4.07
2017-10-24T00:23:53.078Z,4.14
2017-10-24T00:25:03.417Z,4.07
2017-10-24T00:26:13.755Z,4.03
2017-10-24T00:27:23.765Z,4.07
2017-10-24T00:28:33.767Z,4.09
2017-10-24T00:29:44.109Z,4.1
2017-10-24T00:30:54.481Z,4.1
2017-10-24T00:32:04.485Z,4.1
2017-10-24T00:33:14.828Z,4.07
2017-10-24T00:34:24.842Z,4.07
2017-10-24T00:35:34.849Z,4.06
2017-10-24T00:36:45.206Z,4
2017-10-24T00:37:55.550Z,4.04
2017-10-24T00:39:05.894Z,4.06
2017-10-24T00:40:15.895Z,4.09
2017-10-24T00:41:25.895Z,4.12
2017-10-24T00:42:36.157Z,4.16
2017-10-24T00:43:46.496Z,4.18
2017-10-24T00:44:56.494Z,4.13
2017-10-24T00:46:06.506Z,4.16
2017-10-24T00:47:16.845Z,4.18
2017-10-24T00:48:26.851Z,4.21
2017-10-24T00:49:37.185Z,4.22
2017-10-24T00:50:47.203Z,4.25
2017-10-24T00:51:57.210Z,4.3
2017-10-24T00:53:07.230Z,4.31
2017-10-24T00:54:17.593Z,4.34
2017-10-24T00:55:27.933Z,4.22
2017-10-24T00:56:37.604Z,4.24
2017-10-24T00:57:47.613Z,4.3
2017-10-24T00:58:57.953Z,4.32
2017-10-24T01:00:08.299Z,4.3
2017-10-24T01:01:18.639Z,4.27
2017-10-24T01:02:28.645Z,4.38
2017-10-24T01:03:38.984Z,4.27
2017-10-24T01:04:48.996Z,4.25
2017-10-24T01:05:59.342Z,4.28
2017-10-24T01:07:09.352Z,4.3
2017-10-24T01:08:19.687Z,4.3
2017-10-24T01:09:29.686Z,4.28
2017-10-24T01:10:39.695Z,4.32
2017-10-24T01:11:49.700Z,4.32
2017-10-24T01:12:59.706Z,4.32
2017-10-24T01:14:10.043Z,4.4
2017-10-24T01:15:20.389Z,4.4
2017-10-24T01:16:30.057Z,4.46
2017-10-24T01:17:39.726Z,4.42
2017-10-24T01:18:50.068Z,4.48
2017-10-24T01:20:00.106Z,4.42
2017-10-24T01:21:10.458Z,4.42
2017-10-24T01:22:20.805Z,4.4
2017-10-24T01:23:31.149Z,4.42
2017-10-24T01:24:40.819Z,4.45
2017-10-24T01:25:51.159Z,4.4
2017-10-24T01:27:00.833Z,4.45
2017-10-24T01:28:10.844Z,4.4
2017-10-24T01:29:20.854Z,4.4
2017-10-24T01:30:31.187Z,4.36
2017-10-24T01:31:41.521Z,4.49
2017-10-24T01:32:51.864Z,4.46
2017-10-24T01:34:02.214Z,4.49
2017-10-24T01:35:12.547Z,4.38
2017-10-24T01:36:22.887Z,4.42
2017-10-24T01:37:32.895Z,4.45
2017-10-24T01:38:43.238Z,4.49
2017-10-24T01:39:53.576Z,4.42
2017-10-24T01:41:03.581Z,4.36
2017-10-24T01:42:13.587Z,4.45
2017-10-24T01:43:23.929Z,4.46
2017-10-24T01:44:34.267Z,4.4
2017-10-24T01:45:44.608Z,4.5
2017-10-24T01:46:54.945Z,4.42
2017-10-24T01:48:05.310Z,4.45
2017-10-24T01:49:15.298Z,4.49
2017-10-24T01:50:25.656Z,4.48
2017-10-24T01:51:35.328Z,4.46
2017-10-24T01:52:45.331Z,4.38
2017-10-24T01:53:55.667Z,4.53
2017-10-24T01:55:05.330Z,4.46
2017-10-24T01:56:15.669Z,4.4
2017-10-24T01:57:25.671Z,4.38
2017-10-24T01:58:35.638Z,4.46
2017-10-24T01:59:45.640Z,4.45
2017-10-24T02:00:55.650Z,4.43
2017-10-24T02:02:06.014Z,4.39
2017-10-24T02:03:15.684Z,4.43
2017-10-24T02:04:26.026Z,4.38
2017-10-24T02:05:36.377Z,4.34
2017-10-24T02:06:46.728Z,4.36
2017-10-24T02:07:56.726Z,4.4
2017-10-24T02:09:07.072Z,4.32
2017-10-24T02:10:17.085Z,4.31
2017-10-24T02:11:27.423Z,4.3
2017-10-24T02:12:37.433Z,4.34
2017-10-24T02:13:47.800Z,4.3
2017-10-24T02:14:58.165Z,4.3
2017-10-24T02:16:08.163Z,4.3
2017-10-24T02:17:18.509Z,4.28
2017-10-24T02:18:28.184Z,4.36
2017-10-24T02:19:38.198Z,4.31
2017-10-24T02:20:48.547Z,4.3
2017-10-24T02:21:58.559Z,4.32
2017-10-24T02:23:08.901Z,4.25
2017-10-24T02:24:18.913Z,4.27
2017-10-24T02:25:28.920Z,4.3
2017-10-24T02:26:38.258Z,4.24
2017-10-24T02:27:48.284Z,4.21
2017-10-24T02:28:58.623Z,4.24
2017-10-24T02:30:08.964Z,4.18
2017-10-24T02:31:18.982Z,4.27
2017-10-24T02:32:29.348Z,4.1
2017-10-24T02:33:39.356Z,4.31
2017-10-24T02:34:49.696Z,4.31
2017-10-24T02:36:00.039Z,4.25
2017-10-24T02:37:10.399Z,4.27
2017-10-24T02:38:20.750Z,4.31
2017-10-24T02:39:30.754Z,4.31
2017-10-24T02:40:40.755Z,4.32
2017-10-24T02:41:51.120Z,4.24
2017-10-24T02:43:00.789Z,4.16
2017-10-24T02:44:11.138Z,4.21
2017-10-24T02:45:21.150Z,4.2
2017-10-24T02:46:31.161Z,4.1
2017-10-24T02:47:41.165Z,4.1
2017-10-24T02:48:51.175Z,4.02
2017-10-24T02:50:01.189Z,4.03
2017-10-24T02:51:11.213Z,4
2017-10-24T02:52:21.560Z,3.96
2017-10-24T02:53:31.568Z,3.91
2017-10-24T02:54:41.914Z,3.92
2017-10-24T02:55:52.267Z,3.94
2017-10-24T02:57:02.608Z,3.94
2017-10-24T02:58:12.992Z,3.78
2017-10-24T02:59:23.335Z,3.82
2017-10-24T03:00:33.671Z,3.82
2017-10-24T03:01:43.684Z,3.84
2017-10-24T03:02:54.036Z,3.74
2017-10-24T03:04:03.368Z,3.81
2017-10-24T03:05:13.703Z,3.67
2017-10-24T03:06:23.721Z,3.67
2017-10-24T03:07:33.740Z,3.66
2017-10-24T03:08:43.403Z,3.7
2017-10-24T03:09:53.407Z,3.58
2017-10-24T03:11:03.424Z,3.56
2017-10-24T03:12:13.775Z,3.63
2017-10-24T03:13:23.445Z,3.64
2017-10-24T03:14:32.783Z,3.64
2017-10-24T03:15:43.119Z,3.64
2017-10-24T03:16:53.454Z,3.61
2017-10-24T03:18:03.464Z,3.56
2017-10-24T03:19:13.803Z,3.59
2017-10-24T03:20:23.807Z,3.58
2017-10-24T03:21:33.483Z,3.55
2017-10-24T03:22:43.828Z,3.55
2017-10-24T03:23:54.170Z,3.55
2017-10-24T03:25:04.524Z,3.52
2017-10-24T03:26:14.525Z,3.53
2017-10-24T03:27:24.860Z,3.53
2017-10-24T03:28:35.199Z,3.5
2017-10-24T03:29:45.551Z,3.49
2017-10-24T03:30:55.887Z,3.46
2017-10-24T03:32:05.922Z,3.5
2017-10-24T03:33:15.591Z,3.58
2017-10-24T03:34:25.926Z,3.46
2017-10-24T03:35:35.937Z,3.58
2017-10-24T03:36:46.275Z,3.53
2017-10-24T03:37:56.289Z,3.55
2017-10-24T03:39:06.629Z,3.5
2017-10-24T03:40:16.628Z,3.45
2017-10-24T03:41:26.967Z,3.58
2017-10-24T03:42:36.967Z,3.58
2017-10-24T03:43:47.308Z,3.53
2017-10-24T03:44:57.644Z,3.56
2017-10-24T03:46:07.984Z,3.59
2017-10-24T03:47:18.330Z,3.58
2017-10-24T03:48:28.672Z,3.55
2017-10-24T03:49:38.683Z,3.53
2017-10-24T03:50:49.018Z,3.66
2017-10-24T03:51:59.354Z,3.61
2017-10-24T03:53:09.362Z,3.63
2017-10-24T03:54:19.722Z,3.56
2017-10-24T03:55:29.730Z,3.56
2017-10-24T03:56:39.733Z,3.68
2017-10-24T03:57:50.080Z,3.67
2017-10-24T03:59:00.430Z,3.56
2017-10-24T04:00:10.766Z,3.61
2017-10-24T04:01:21.102Z,3.56
2017-10-24T04:02:31.444Z,3.67
2017-10-24T04:03:41.442Z,3.66
2017-10-24T04:04:51.784Z,3.64
2017-10-24T04:06:02.138Z,3.61
2017-10-24T04:07:12.482Z,3.7
2017-10-24T04:08:22.483Z,3.66
2017-10-24T04:09:32.822Z,3.58
2017-10-24T04:10:42.834Z,3.53
2017-10-24T04:11:52.840Z,3.55
2017-10-24T04:13:04.876Z,3.55
2017-10-24T04:14:15.223Z,3.59
2017-10-24T04:15:25.563Z,3.58
2017-10-24T04:16:35.230Z,3.48
2017-10-24T04:17:45.575Z,3.53
2017-10-24T04:18:55.911Z,3.5
2017-10-24T04:20:06.252Z,3.61
2017-10-24T04:21:16.593Z,3.53
2017-10-24T04:22:26.931Z,3.59
2017-10-24T04:23:37.265Z,3.5
2017-10-24T04:24:47.601Z,3.49
2017-10-24T04:25:57.953Z,3.53
2017-10-24T04:27:07.977Z,3.49
2017-10-24T04:28:17.639Z,3.52
2017-10-24T04:29:27.982Z,3.43
2017-10-24T04:30:37.647Z,3.4
2017-10-24T04:31:47.988Z,3.4
2017-10-24T04:32:58.322Z,3.49
2017-10-24T04:34:08.675Z,3.31
2017-10-24T04:35:18.348Z,3.41
2017-10-24T04:36:28.353Z,3.36
2017-10-24T04:37:38.358Z,3.3
2017-10-24T04:38:48.697Z,3.29
2017-10-24T04:39:58.700Z,3.26
2017-10-24T04:41:08.703Z,3.33
2017-10-24T04:42:18.740Z,3.21
2017-10-24T04:43:29.081Z,3.26
2017-10-24T04:44:38.745Z,3.27
2017-10-24T04:45:49.090Z,3.15
2017-10-24T04:46:59.092Z,3.21
2017-10-24T04:48:09.440Z,3.19
2017-10-24T04:49:19.110Z,3.26
2017-10-24T04:50:29.475Z,3.15
2017-10-24T04:51:39.813Z,3.31
2017-10-24T04:52:49.825Z,3.26
2017-10-24T04:53:59.876Z,3.24
2017-10-24T04:55:10.224Z,3.22
2017-10-24T04:56:20.241Z,3.19
2017-10-24T04:57:29.930Z,3.3
2017-10-24T04:58:40.281Z,3.29
2017-10-24T04:59:50.626Z,3.29
2017-10-24T05:01:00.647Z,3.27
2017-10-24T05:02:10.653Z,3.24
2017-10-24T05:03:21.014Z,3.24
2017-10-24T05:04:30.693Z,3.19
2017-10-24T05:05:40.701Z,3.31
2017-10-24T05:06:50.037Z,3.36
2017-10-24T05:08:00.062Z,3.36
2017-10-24T05:09:10.068Z,3.34
2017-10-24T05:10:20.400Z,3.21
2017-10-24T05:11:30.750Z,3.24
2017-10-24T05:12:40.768Z,3.22
2017-10-24T05:13:50.781Z,3.16
2017-10-24T05:15:01.110Z,3.15
2017-10-24T05:16:11.450Z,3.18
2017-10-24T05:17:21.814Z,3.21
2017-10-24T05:18:31.485Z,3.16
2017-10-24T05:19:41.817Z,3.24
2017-10-24T05:20:52.159Z,3.26
2017-10-24T05:22:01.492Z,3.18
2017-10-24T05:23:11.826Z,3.33
2017-10-24T05:24:21.826Z,3.21
2017-10-24T05:25:32.168Z,3.27
2017-10-24T05:26:42.502Z,3.22
2017-10-24T05:27:52.853Z,3.19
2017-10-24T05:29:04.887Z,3.26
2017-10-24T05:30:14.894Z,3.19
2017-10-24T05:31:25.233Z,3.29
2017-10-24T05:32:34.570Z,3.26
2017-10-24T05:33:44.917Z,3.27
2017-10-24T05:34:55.255Z,3.27
2017-10-24T05:36:05.622Z,3.24
2017-10-24T05:37:15.626Z,3.26
2017-10-24T05:38:25.294Z,3.21
2017-10-24T05:39:35.292Z,3.21
2017-10-24T05:40:47.291Z,3.29
2017-10-24T05:41:57.627Z,3.22
2017-10-24T05:43:07.965Z,3.31
2017-10-24T05:44:18.297Z,3.27
2017-10-24T05:45:28.639Z,3.31
2017-10-24T05:46:38.988Z,3.3
2017-10-24T05:47:48.996Z,3.29
2017-10-24T05:48:59.025Z,3.26
2017-10-24T05:50:09.370Z,3.27
2017-10-24T05:51:19.383Z,3.31
2017-10-24T05:52:31.391Z,3.24
2017-10-24T05:53:41.391Z,3.22
2017-10-24T05:54:51.399Z,3.21
2017-10-24T05:56:01.757Z,3.27
2017-10-24T05:57:11.763Z,3.3
2017-10-24T05:58:22.103Z,3.21
2017-10-24T05:59:32.437Z,3.29
2017-10-24T06:00:42.447Z,3.31
2017-10-24T06:01:52.810Z,3.22
2017-10-24T06:03:03.166Z,3.24
2017-10-24T06:04:13.172Z,3.19
2017-10-24T06:05:23.199Z,3.27
2017-10-24T06:06:32.869Z,3.27
2017-10-24T06:07:43.206Z,3.26
2017-10-24T06:08:53.543Z,3.26
2017-10-24T06:10:03.896Z,3.29
2017-10-24T06:11:13.896Z,3.24
2017-10-24T06:12:23.566Z,3.21
2017-10-24T06:13:33.574Z,3.18
2017-10-24T06:14:43.926Z,3.18
2017-10-24T06:15:54.264Z,3.18
2017-10-24T06:17:04.297Z,3.16
2017-10-24T06:18:13.965Z,3.15
2017-10-24T06:19:23.649Z,3.08
2017-10-24T06:20:33.993Z,3.15
2017-10-24T06:21:43.665Z,3.09
2017-10-24T06:22:53.667Z,3.12
2017-10-24T06:24:03.668Z,3.12
2017-10-24T06:25:13.349Z,3.18
2017-10-24T06:26:23.355Z,3.15
2017-10-24T06:27:33.698Z,3.11
2017-10-24T06:28:43.361Z,3.12
2017-10-24T06:29:53.704Z,3.11
2017-10-24T06:31:04.042Z,3.11
2017-10-24T06:32:14.051Z,3.16
2017-10-24T06:33:23.721Z,3.29
2017-10-24T06:34:34.060Z,3.29
2017-10-24T06:35:44.415Z,3.26
2017-10-24T06:36:54.162Z,3.29
2017-10-24T06:38:04.179Z,3.22
2017-10-24T06:39:14.183Z,3.26
2017-10-24T06:40:24.196Z,3.26
2017-10-24T06:41:33.871Z,3.26
2017-10-24T06:42:44.212Z,3.26
2017-10-24T06:43:54.238Z,3.18
2017-10-24T06:45:04.245Z,3.26
2017-10-24T06:46:14.246Z,3.19
2017-10-24T06:47:24.249Z,3.22
2017-10-24T06:48:34.260Z,3.33
2017-10-24T06:49:44.279Z,3.29
2017-10-24T06:50:54.617Z,3.33
2017-10-24T06:52:04.968Z,3.31
2017-10-24T06:53:14.993Z,3.37
2017-10-24T06:54:24.661Z,3.36
2017-10-24T06:55:35.001Z,3.34
2017-10-24T06:56:45.018Z,3.41
2017-10-24T06:57:54.686Z,3.33
2017-10-24T06:59:05.028Z,3.46
2017-10-24T07:00:15.368Z,3.45
2017-10-24T07:01:25.739Z,3.34
2017-10-24T07:02:36.083Z,3.4
2017-10-24T07:03:46.085Z,3.4
2017-10-24T07:04:56.424Z,3.4
2017-10-24T07:06:06.092Z,3.37
2017-10-24T07:07:15.422Z,3.34
2017-10-24T07:08:25.760Z,3.46
2017-10-24T07:09:35.430Z,3.45
2017-10-24T07:10:45.458Z,3.46
2017-10-24T07:11:55.463Z,3.46
2017-10-24T07:13:05.465Z,3.43
2017-10-24T07:14:15.810Z,3.43
2017-10-24T07:15:26.166Z,3.46
2017-10-24T07:16:35.838Z,3.48
2017-10-24T07:17:45.842Z,3.52
2017-10-24T07:18:55.525Z,3.52
2017-10-24T07:20:05.534Z,3.52
2017-10-24T07:21:15.888Z,3.49
2017-10-24T07:22:25.588Z,3.49
2017-10-24T07:23:34.938Z,3.56
2017-10-24T07:24:44.939Z,3.58
2017-10-24T07:25:54.951Z,3.53
2017-10-24T07:27:04.958Z,3.55
2017-10-24T07:28:14.960Z,3.56
2017-10-24T07:29:25.293Z,3.56
2017-10-24T07:30:35.296Z,3.56
2017-10-24T07:31:44.973Z,3.61
2017-10-24T07:32:55.319Z,3.67
2017-10-24T07:34:05.330Z,3.58
2017-10-24T07:35:15.670Z,3.66
2017-10-24T07:36:25.684Z,3.68
2017-10-24T07:37:36.032Z,3.55
2017-10-24T07:38:46.048Z,3.56
2017-10-24T07:39:56.060Z,3.7
2017-10-24T07:41:06.399Z,3.56
2017-10-24T07:42:16.073Z,3.73
2017-10-24T07:43:26.086Z,3.7
2017-10-24T07:44:35.756Z,3.78
2017-10-24T07:45:46.116Z,3.68
2017-10-24T07:46:56.455Z,3.77
2017-10-24T07:48:06.792Z,3.81
2017-10-24T07:49:16.860Z,3.78
2017-10-24T07:50:27.201Z,3.76
2017-10-24T07:51:36.535Z,3.76
2017-10-24T07:52:46.885Z,3.81
2017-10-24T07:53:57.226Z,3.77
2017-10-24T07:55:06.612Z,3.76
2017-10-24T07:56:16.281Z,3.82
2017-10-24T07:57:25.611Z,3.86
2017-10-24T07:58:35.613Z,3.78
2017-10-24T07:59:45.957Z,3.86
2017-10-24T08:00:56.599Z,3.84
2017-10-24T08:02:06.937Z,3.78
2017-10-24T08:03:16.942Z,3.77
2017-10-24T08:04:27.288Z,3.77
2017-10-24T08:05:36.960Z,3.74
2017-10-24T08:06:47.306Z,3.78
2017-10-24T08:07:57.321Z,3.76
2017-10-24T08:09:06.993Z,3.78
2017-10-24T08:10:17.335Z,3.81
2017-10-24T08:11:27.677Z,3.77
2017-10-24T08:12:37.686Z,3.85
2017-10-24T08:13:47.362Z,3.76
2017-10-24T08:14:57.038Z,3.84
2017-10-24T08:16:07.040Z,3.78
2017-10-24T08:17:17.044Z,3.81
2017-10-24T08:18:27.383Z,3.73
2017-10-24T08:19:37.725Z,3.81
2017-10-24T08:20:47.395Z,3.73
2017-10-24T08:21:57.070Z,3.82
2017-10-24T08:23:07.408Z,3.71
2017-10-24T08:24:17.098Z,3.81
2017-10-24T08:25:27.101Z,3.82
2017-10-24T08:26:37.136Z,3.81
2017-10-24T08:27:46.817Z,3.82
2017-10-24T08:28:57.152Z,3.78
2017-10-24T08:30:07.519Z,3.77
2017-10-24T08:31:17.864Z,3.86
2017-10-24T08:32:27.533Z,3.84
2017-10-24T08:33:37.208Z,3.92
2017-10-24T08:34:47.544Z,3.81
2017-10-24T08:35:57.550Z,3.91
2017-10-24T08:37:07.889Z,3.86
2017-10-24T08:38:17.896Z,4.02
2017-10-24T08:39:28.245Z,4.03
2017-10-24T08:40:38.246Z,3.99
2017-10-24T08:41:47.920Z,4.12
2017-10-24T08:42:58.257Z,4.06
2017-10-24T08:44:08.600Z,4.04
2017-10-24T08:45:18.947Z,4.07
2017-10-24T08:46:29.285Z,4.09
2017-10-24T08:47:38.953Z,4.09
2017-10-24T08:48:50.313Z,4.16
2017-10-24T08:50:00.326Z,4.18
2017-10-24T08:51:09.665Z,4.25
2017-10-24T08:52:20.001Z,4.21
2017-10-24T08:53:30.339Z,4.25
2017-10-24T08:54:40.356Z,4.2
2017-10-24T08:55:50.360Z,4.24
2017-10-24T08:57:00.709Z,4.28
2017-10-24T08:58:10.379Z,4.3
2017-10-24T08:59:20.393Z,4.27
2017-10-24T09:00:30.734Z,4.34
2017-10-24T09:01:40.403Z,4.24
2017-10-24T09:02:50.433Z,4.31
2017-10-24T09:04:00.439Z,4.34
2017-10-24T09:05:10.113Z,4.3
2017-10-24T09:06:20.120Z,4.38
2017-10-24T09:07:30.457Z,4.36
2017-10-24T09:08:40.148Z,4.32
2017-10-24T09:09:49.829Z,4.4
2017-10-24T09:11:00.175Z,4.3
2017-10-24T09:12:09.843Z,4.32
2017-10-24T09:13:20.185Z,4.43
2017-10-24T09:14:30.518Z,4.43
2017-10-24T09:15:40.529Z,4.45
2017-10-24T09:16:50.893Z,4.56
2017-10-24T09:18:00.896Z,4.53
2017-10-24T09:19:10.900Z,4.52
2017-10-24T09:20:21.251Z,4.5
2017-10-24T09:21:31.235Z,4.49
2017-10-24T09:22:41.578Z,4.52
2017-10-24T09:23:51.252Z,4.45
2017-10-24T09:25:01.261Z,4.4
2017-10-24T09:26:11.266Z,4.42
2017-10-24T09:27:21.605Z,4.45
2017-10-24T09:28:31.623Z,4.42
2017-10-24T09:29:41.637Z,4.4
2017-10-24T09:30:51.989Z,4.39
2017-10-24T09:32:01.656Z,4.4
2017-10-24T09:33:10.656Z,4.45
2017-10-24T09:34:20.999Z,4.31
2017-10-24T09:35:31.337Z,4.32
2017-10-24T09:36:41.676Z,4.3
2017-10-24T09:37:52.014Z,4.28
2017-10-24T09:39:01.682Z,4.3
2017-10-24T09:40:11.350Z,4.25
2017-10-24T09:41:21.702Z,4.27
2017-10-24T09:42:31.703Z,4.25
2017-10-24T09:43:41.706Z,4.22
2017-10-24T09:44:52.049Z,4.21
2017-10-24T09:46:02.054Z,4.14
2017-10-24T09:47:11.720Z,4.2
2017-10-24T09:48:22.062Z,4.13
2017-10-24T09:49:32.063Z,4.09
2017-10-24T09:50:42.074Z,4.07
2017-10-24T09:51:52.416Z,4.03
2017-10-24T09:53:02.761Z,4.04
2017-10-24T09:54:13.098Z,4.06
2017-10-24T09:55:23.439Z,4.02
2017-10-24T09:56:33.777Z,4.03
2017-10-24T09:57:43.441Z,3.95
2017-10-24T09:58:53.445Z,4
2017-10-24T10:00:03.779Z,3.99
2017-10-24T10:01:13.789Z,4
2017-10-24T10:02:23.454Z,4.03
2017-10-24T10:03:33.791Z,4.09
2017-10-24T10:04:43.812Z,4.02
2017-10-24T10:05:54.157Z,4.06
2017-10-24T10:07:03.822Z,4
2017-10-24T10:08:13.490Z,4.03
2017-10-24T10:09:23.823Z,3.96
2017-10-24T10:10:33.854Z,3.94
2017-10-24T10:11:44.195Z,3.95
2017-10-24T10:12:54.198Z,3.89
2017-10-24T10:14:04.538Z,3.86
2017-10-24T10:15:14.873Z,3.89
2017-10-24T10:16:25.210Z,3.96
2017-10-24T10:17:35.545Z,3.84
2017-10-24T10:18:45.223Z,3.76
2017-10-24T10:19:55.246Z,3.77
2017-10-24T10:21:05.584Z,3.84
2017-10-24T10:22:15.601Z,3.82
2017-10-24T10:23:25.938Z,3.86
2017-10-24T10:24:35.607Z,3.85
2017-10-24T10:25:45.661Z,3.81
2017-10-24T10:26:55.338Z,3.78
2017-10-24T10:28:05.348Z,3.84
2017-10-24T10:29:15.029Z,3.81
2017-10-24T10:30:25.374Z,3.81
2017-10-24T10:31:35.707Z,3.77
2017-10-24T10:32:45.714Z,3.81
2017-10-24T10:33:56.060Z,3.76
2017-10-24T10:35:06.070Z,3.78
2017-10-24T10:36:16.079Z,3.73
2017-10-24T10:37:26.078Z,3.73
2017-10-24T10:38:36.081Z,3.74
2017-10-24T10:39:46.413Z,3.76
2017-10-24T10:40:56.760Z,3.82
2017-10-24T10:42:07.098Z,3.73
2017-10-24T10:43:17.443Z,3.77
2017-10-24T10:44:27.818Z,3.74
2017-10-24T10:45:38.154Z,3.74
2017-10-24T10:46:48.494Z,3.66
2017-10-24T10:47:58.496Z,3.66
2017-10-24T10:49:08.833Z,3.7
2017-10-24T10:50:18.834Z,3.7
2017-10-24T10:51:29.185Z,3.7
2017-10-24T10:52:39.541Z,3.58
2017-10-24T10:53:49.546Z,3.66
2017-10-24T10:54:59.546Z,3.59
2017-10-24T10:56:09.892Z,3.56
2017-10-24T10:57:19.898Z,3.58
2017-10-24T10:58:30.236Z,3.63
2017-10-24T10:59:40.574Z,3.61
2017-10-24T11:00:50.906Z,3.61
2017-10-24T11:02:00.966Z,3.58
2017-10-24T11:03:11.299Z,3.5
2017-10-24T11:04:21.300Z,3.59
2017-10-24T11:05:30.967Z,3.58
2017-10-24T11:06:40.966Z,3.7
2017-10-24T11:07:50.973Z,3.64
2017-10-24T11:09:00.643Z,3.7
2017-10-24T11:10:11.020Z,3.58
2017-10-24T11:11:21.030Z,3.55
2017-10-24T11:12:31.029Z,3.63
2017-10-24T11:13:41.366Z,3.67
2017-10-24T11:14:51.719Z,3.63
2017-10-24T11:16:01.385Z,3.68
2017-10-24T11:17:11.737Z,3.71
2017-10-24T11:18:22.076Z,3.66
2017-10-24T11:19:32.419Z,3.68
2017-10-24T11:20:41.417Z,3.67
2017-10-24T11:21:51.425Z,3.71
2017-10-24T11:23:01.760Z,3.68
2017-10-24T11:24:11.768Z,3.74
2017-10-24T11:25:22.080Z,3.7
2017-10-24T11:26:32.433Z,3.76
2017-10-24T11:27:42.436Z,3.73
2017-10-24T11:28:52.434Z,3.71
2017-10-24T11:30:02.452Z,3.77
2017-10-24T11:31:12.454Z,3.76
2017-10-24T11:32:22.810Z,3.71
2017-10-24T11:33:32.478Z,3.68
2017-10-24T11:34:42.817Z,3.73
2017-10-24T11:35:53.162Z,3.61
2017-10-24T11:37:03.843Z,3.56
2017-10-24T11:38:13.842Z,3.56
2017-10-24T11:39:24.178Z,3.68
2017-10-24T11:40:34.512Z,3.55
2017-10-24T11:41:43.846Z,3.63
2017-10-24T11:42:53.845Z,3.61
2017-10-24T11:44:04.217Z,3.66
2017-10-24T11:45:14.559Z,3.63
2017-10-24T11:46:24.586Z,3.66
2017-10-24T11:47:34.598Z,3.67
2017-10-24T11:48:44.263Z,3.61
2017-10-24T11:49:54.262Z,3.64
2017-10-24T11:51:04.621Z,3.58
2017-10-24T11:52:13.952Z,3.58
2017-10-24T11:53:24.296Z,3.55
2017-10-24T11:54:34.629Z,3.66
2017-10-24T11:55:44.977Z,3.67
2017-10-24T11:56:55.007Z,3.63
2017-10-24T11:58:04.676Z,3.71
2017-10-24T11:59:15.014Z,3.56
2017-10-24T12:00:25.018Z,3.53
2017-10-24T12:01:35.023Z,3.61
2017-10-24T12:02:44.713Z,3.66
2017-10-24T12:03:55.053Z,3.68
2017-10-24T12:05:05.060Z,3.68
2017-10-24T12:06:14.727Z,3.67
2017-10-24T12:07:25.066Z,3.63
2017-10-24T12:08:35.067Z,3.7
2017-10-24T12:09:44.732Z,3.73
2017-10-24T12:10:54.731Z,3.77
2017-10-24T12:12:04.398Z,3.74
2017-10-24T12:13:14.794Z,3.74
2017-10-24T12:14:24.816Z,3.71
2017-10-24T12:15:34.485Z,3.71
2017-10-24T12:16:44.823Z,3.74
2017-10-24T12:17:55.162Z,3.71
2017-10-24T12:19:05.177Z,3.74
2017-10-24T12:20:15.530Z,3.73
2017-10-24T12:21:25.874Z,3.73
2017-10-24T12:22:35.876Z,3.74
2017-10-24T12:23:45.209Z,3.78
2017-10-24T12:24:55.541Z,3.74
2017-10-24T12:26:05.543Z,3.77
2017-10-24T12:27:15.881Z,3.76
2017-10-24T12:28:25.889Z,3.7
2017-10-24T12:29:35.562Z,3.77
2017-10-24T12:30:45.561Z,3.74
2017-10-24T12:31:55.903Z,3.71
2017-10-24T12:33:05.915Z,3.74
2017-10-24T12:34:16.250Z,3.74
2017-10-24T12:35:26.250Z,3.73
2017-10-24T12:36:36.592Z,3.7
2017-10-24T12:37:46.602Z,3.73
2017-10-24T12:38:56.272Z,3.7
2017-10-24T12:40:06.611Z,3.68
2017-10-24T12:41:16.944Z,3.7
2017-10-24T12:42:26.622Z,3.58
2017-10-24T12:43:36.706Z,3.7
2017-10-24T12:44:46.371Z,3.66
2017-10-24T12:45:56.035Z,3.68
2017-10-24T12:47:05.713Z,3.67
2017-10-24T12:48:16.050Z,3.58
2017-10-24T12:49:26.389Z,3.68
2017-10-24T12:50:36.747Z,3.68
2017-10-24T12:51:47.088Z,3.64
2017-10-24T12:52:57.421Z,3.67
2017-10-24T12:54:07.761Z,3.64
2017-10-24T12:55:18.109Z,3.55
2017-10-24T12:56:28.458Z,3.56
2017-10-24T12:57:38.803Z,3.61
2017-10-24T12:58:48.478Z,3.63
2017-10-24T12:59:58.813Z,3.61
2017-10-24T13:01:08.849Z,3.53
2017-10-24T13:02:18.849Z,3.61
2017-10-24T13:03:29.200Z,3.67
2017-10-24T13:04:39.559Z,3.61
2017-10-24T13:05:49.569Z,3.61
2017-10-24T13:06:59.232Z,3.66
2017-10-24T13:08:09.244Z,3.67
2017-10-24T13:09:19.577Z,3.58
2017-10-24T13:10:29.916Z,3.67
2017-10-24T13:11:40.251Z,3.58
2017-10-24T13:12:50.585Z,3.71
2017-10-24T13:14:00.918Z,3.66
2017-10-24T13:15:10.596Z,3.74
2017-10-24T13:16:20.938Z,3.68
2017-10-24T13:17:31.271Z,3.71
2017-10-24T13:18:41.276Z,3.68
2017-10-24T13:19:51.622Z,3.73
2017-10-24T13:21:01.623Z,3.67
2017-10-24T13:22:11.970Z,3.66
2017-10-24T13:23:21.958Z,3.7
2017-10-24T13:24:32.291Z,3.73
2017-10-24T13:25:41.622Z,3.68
2017-10-24T13:26:51.955Z,3.7
2017-10-24T13:28:01.625Z,3.58
2017-10-24T13:29:11.629Z,3.73
2017-10-24T13:30:21.975Z,3.7
2017-10-24T13:31:32.316Z,3.7
2017-10-24T13:32:41.994Z,3.66
2017-10-24T13:33:52.329Z,3.68
2017-10-24T13:35:02.326Z,3.76
2017-10-24T13:36:12.344Z,3.73
2017-10-24T13:37:22.692Z,3.74
2017-10-24T13:38:32.692Z,3.74
2017-10-24T13:39:44.366Z,3.76
2017-10-24T13:40:54.723Z,3.77
2017-10-24T13:42:05.075Z,3.78
2017-10-24T13:43:15.084Z,3.74
2017-10-24T13:44:25.423Z,3.77
2017-10-24T13:45:35.762Z,3.76
2017-10-24T13:46:45.426Z,3.74
2017-10-24T13:47:55.768Z,3.76
2017-10-24T13:49:06.107Z,3.84
2017-10-24T13:50:16.104Z,3.81
2017-10-24T13:51:26.110Z,3.78
2017-10-24T13:52:36.446Z,3.78
2017-10-24T13:53:46.111Z,3.78
2017-10-24T13:54:56.448Z,3.77
2017-10-24T13:56:06.455Z,3.82
2017-10-24T13:57:16.464Z,3.77
2017-10-24T13:58:26.467Z,3.81
2017-10-24T13:59:36.470Z,3.82
2017-10-24T14:00:46.151Z,3.74
2017-10-24T14:01:56.156Z,3.78
2017-10-24T14:03:08.501Z,3.82
2017-10-24T14:04:18.501Z,3.81
2017-10-24T14:05:28.170Z,3.94
2017-10-24T14:06:38.503Z,3.82
2017-10-24T14:07:48.852Z,3.82
2017-10-24T14:08:58.853Z,3.82
2017-10-24T14:10:08.860Z,3.82
2017-10-24T14:11:19.198Z,3.84
2017-10-24T14:12:29.207Z,3.88
2017-10-24T14:13:39.544Z,3.84
2017-10-24T14:14:49.880Z,3.81
2017-10-24T14:15:59.889Z,3.81
2017-10-24T14:17:09.555Z,3.84
2017-10-24T14:18:19.919Z,3.78
2017-10-24T14:19:30.262Z,3.84
2017-10-24T14:20:40.270Z,3.76
2017-10-24T14:21:50.284Z,3.84
2017-10-24T14:23:00.285Z,3.81
2017-10-24T14:24:10.305Z,3.77
2017-10-24T14:25:20.319Z,3.81
2017-10-24T14:26:32.657Z,3.81
2017-10-24T14:27:42.995Z,3.84
2017-10-24T14:28:52.996Z,3.74
2017-10-24T14:30:03.337Z,3.82
2017-10-24T14:31:12.671Z,3.81
2017-10-24T14:32:23.010Z,3.84
2017-10-24T14:33:33.011Z,3.84
2017-10-24T14:34:43.349Z,3.81
2017-10-24T14:35:53.690Z,3.81
2017-10-24T14:37:04.069Z,3.85
2017-10-24T14:38:14.073Z,3.77
2017-10-24T14:39:24.419Z,3.76
2017-10-24T14:40:34.755Z,3.74
2017-10-24T14:41:45.092Z,3.81
2017-10-24T14:42:55.433Z,3.76
2017-10-24T14:44:05.770Z,3.82
2017-10-24T14:45:16.105Z,3.81
2017-10-24T14:46:26.447Z,3.77
2017-10-24T14:47:36.785Z,3.81
2017-10-24T14:48:46.791Z,3.78
2017-10-24T14:49:57.135Z,3.71
2017-10-24T14:51:07.508Z,3.81
2017-10-24T14:52:17.530Z,3.82
2017-10-24T14:53:27.871Z,3.84
2017-10-24T14:54:38.247Z,3.84
2017-10-24T14:55:48.586Z,3.81
2017-10-24T14:56:58.921Z,3.81
2017-10-24T14:58:09.267Z,3.77
2017-10-24T14:59:19.602Z,3.76
2017-10-24T15:00:29.604Z,3.82
2017-10-24T15:01:39.949Z,3.84
2017-10-24T15:02:49.628Z,3.88
2017-10-24T15:03:59.970Z,3.84
2017-10-24T15:05:10.310Z,3.84
2017-10-24T15:06:20.647Z,3.94
2017-10-24T15:07:30.649Z,3.92
2017-10-24T15:08:40.654Z,3.91
2017-10-24T15:09:51.006Z,3.94
2017-10-24T15:11:00.675Z,3.91
2017-10-24T15:12:10.361Z,3.91
2017-10-24T15:13:20.698Z,3.84
2017-10-24T15:14:30.714Z,3.92
2017-10-24T15:15:40.388Z,3.88
2017-10-24T15:16:50.387Z,3.94
2017-10-24T15:18:00.722Z,3.94
2017-10-24T15:19:10.740Z,3.94
2017-10-24T15:20:20.742Z,3.86
2017-10-24T15:21:30.748Z,3.99
2017-10-24T15:22:40.747Z,3.96
2017-10-24T15:23:51.093Z,3.81
2017-10-24T15:25:01.431Z,3.91
2017-10-24T15:26:11.776Z,3.77
2017-10-24T15:27:21.794Z,3.82
2017-10-24T15:28:31.798Z,3.82
2017-10-24T15:29:42.143Z,3.91
2017-10-24T15:30:52.147Z,3.96
2017-10-24T15:32:02.485Z,3.85
2017-10-24T15:33:12.826Z,3.82
2017-10-24T15:34:22.826Z,3.89
2017-10-24T15:35:33.175Z,3.89
2017-10-24T15:36:43.179Z,3.77